Sky Ever — DSQX9 — position and weather

sailwx.info

Track history (hours):
 
Tides and Currents Weather Stations Pressure Air Temp Water Temp Dewpoint Dewpoint Depression Visibility Wind Speed Wind Dir Waves Ship Positions

Sky Ever

Last reported at 2015-Apr-07 11:33 UTC. Time now 2015-Apr-21 06:36 UTC.
Position N 34°37' E 135°02'.
Warning: this ship's position is 13 days out of date.

Length 76 m; draft 3.7 m.

Type: Cargo ship. MMSI: 441751000.

Date/timePositionNaut miles runAvg speedWind from/ knotsBaromVisibWave heightAir tempDewpointWater temp
2015-Apr-07 11:33N 34°37' E 135°02'1111.0
2015-Apr-07 10:33N 34°36' E 135°15'9 9.5
2015-Apr-07 09:33N 34°39' E 135°26'0 0.1
2015-Apr-07 08:32N 34°39' E 135°26'0 0.0
2015-Apr-07 07:26N 34°39' E 135°26'0 0.0
2015-Apr-07 06:26N 34°39' E 135°26'0 0.0
2015-Apr-07 05:32N 34°39' E 135°26'0 0.0
2015-Apr-07 04:32N 34°39' E 135°26'0 0.0
2015-Apr-07 03:32N 34°39' E 135°26'0 0.0
2015-Apr-07 02:32N 34°39' E 135°26'0 0.0
2015-Apr-07 01:14N 34°39' E 135°26'0 0.0
2015-Apr-07 00:26N 34°39' E 135°26'0 0.1
2015-Apr-06 23:32N 34°39' E 135°26'0 0.0
2015-Apr-06 22:32N 34°39' E 135°26'4 4.1
2015-Apr-06 21:33N 34°37' E 135°22'0 0.2
2015-Apr-06 20:28N 34°37' E 135°22'0 0.0
2015-Apr-06 19:22N 34°37' E 135°22'0 0.0
2015-Apr-06 18:28N 34°37' E 135°22'0 0.0
2015-Apr-06 17:22N 34°37' E 135°22'0 0.0
2015-Apr-06 16:16N 34°37' E 135°22'0 0.0
2015-Apr-06 15:28N 34°37' E 135°22'0 0.0
2015-Apr-06 14:28N 34°37' E 135°22'0 0.0
2015-Apr-06 13:33N 34°37' E 135°22'0 0.0
2015-Apr-06 12:33N 34°37' E 135°22'0 0.0
2015-Apr-06 11:33N 34°37' E 135°22'0 0.0
2015-Apr-06 10:15N 34°37' E 135°22'0 0.1
2015-Apr-06 09:33N 34°37' E 135°22'0 0.0
2015-Apr-06 08:33N 34°37' E 135°22'0 0.0
2015-Apr-06 07:33N 34°37' E 135°22'0 0.0
2015-Apr-06 06:27N 34°37' E 135°22'0 0.0
2015-Apr-06 05:33N 34°37' E 135°22'0 0.0
2015-Apr-06 04:27N 34°37' E 135°22'0 0.0
2015-Apr-06 03:33N 34°37' E 135°22'0 0.0
2015-Apr-06 02:21N 34°37' E 135°22'0 0.0
2015-Apr-06 01:27N 34°37' E 135°22'0 0.0
2015-Apr-06 00:33N 34°37' E 135°22'0 0.0
2015-Apr-05 23:33N 34°37' E 135°22'0 0.0
2015-Apr-05 22:33N 34°37' E 135°22'0 0.4
2015-Apr-05 21:33N 34°37' E 135°22'0 0.3
2015-Apr-05 20:32N 34°37' E 135°22'0 0.0
2015-Apr-05 19:32N 34°37' E 135°22'0 0.0
2015-Apr-05 18:32N 34°37' E 135°22'0 0.0
2015-Apr-05 17:32N 34°37' E 135°22'0 0.0
2015-Apr-05 16:32N 34°37' E 135°22'0 0.0
2015-Apr-05 15:32N 34°37' E 135°22'6 6.2
2015-Apr-05 14:33N 34°36' E 135°14'9 9.0
2015-Apr-05 13:33N 34°36' E 135°03'7 7.4
2015-Apr-05 12:33N 34°35' E 134°54'  
2015-Mar-30 15:07N 35°07' E 129°15'810.9
2015-Mar-30 14:21N 35°01' E 129°09'  
Track history (hours):
 
Tides and Currents Weather Stations Pressure Air Temp Water Temp Dewpoint Dewpoint Depression Visibility Wind Speed Wind Dir Waves Ship Positions

Sky Ever

Last reported at 2015-Apr-07 11:33 UTC. Time now 2015-Apr-21 06:36 UTC.
Position N 34°37' E 135°02'.
Warning: this ship's position is 13 days out of date.

Length 76 m; draft 3.7 m.

Type: Cargo ship. MMSI: 441751000.

Date/timePositionNaut miles runAvg speedWind from/ knotsBaromVisibWave heightAir tempDewpointWater temp
2015-Apr-07 11:33N 34°37' E 135°02'1111.0
2015-Apr-07 10:33N 34°36' E 135°15'9 9.5
2015-Apr-07 09:33N 34°39' E 135°26'0 0.1
2015-Apr-07 08:32N 34°39' E 135°26'0 0.0
2015-Apr-07 07:26N 34°39' E 135°26'0 0.0
2015-Apr-07 06:26N 34°39' E 135°26'0 0.0
2015-Apr-07 05:32N 34°39' E 135°26'0 0.0
2015-Apr-07 04:32N 34°39' E 135°26'0 0.0
2015-Apr-07 03:32N 34°39' E 135°26'0 0.0
2015-Apr-07 02:32N 34°39' E 135°26'0 0.0
2015-Apr-07 01:14N 34°39' E 135°26'0 0.0
2015-Apr-07 00:26N 34°39' E 135°26'0 0.1
2015-Apr-06 23:32N 34°39' E 135°26'0 0.0
2015-Apr-06 22:32N 34°39' E 135°26'4 4.1
2015-Apr-06 21:33N 34°37' E 135°22'0 0.2
2015-Apr-06 20:28N 34°37' E 135°22'0 0.0
2015-Apr-06 19:22N 34°37' E 135°22'0 0.0
2015-Apr-06 18:28N 34°37' E 135°22'0 0.0
2015-Apr-06 17:22N 34°37' E 135°22'0 0.0
2015-Apr-06 16:16N 34°37' E 135°22'0 0.0
2015-Apr-06 15:28N 34°37' E 135°22'0 0.0
2015-Apr-06 14:28N 34°37' E 135°22'0 0.0
2015-Apr-06 13:33N 34°37' E 135°22'0 0.0
2015-Apr-06 12:33N 34°37' E 135°22'0 0.0
2015-Apr-06 11:33N 34°37' E 135°22'0 0.0
2015-Apr-06 10:15N 34°37' E 135°22'0 0.1
2015-Apr-06 09:33N 34°37' E 135°22'0 0.0
2015-Apr-06 08:33N 34°37' E 135°22'0 0.0
2015-Apr-06 07:33N 34°37' E 135°22'0 0.0
2015-Apr-06 06:27N 34°37' E 135°22'0 0.0
2015-Apr-06 05:33N 34°37' E 135°22'0 0.0
2015-Apr-06 04:27N 34°37' E 135°22'0 0.0
2015-Apr-06 03:33N 34°37' E 135°22'0 0.0
2015-Apr-06 02:21N 34°37' E 135°22'0 0.0
2015-Apr-06 01:27N 34°37' E 135°22'0 0.0
2015-Apr-06 00:33N 34°37' E 135°22'0 0.0
2015-Apr-05 23:33N 34°37' E 135°22'0 0.0
2015-Apr-05 22:33N 34°37' E 135°22'0 0.4
2015-Apr-05 21:33N 34°37' E 135°22'0 0.3
2015-Apr-05 20:32N 34°37' E 135°22'0 0.0
2015-Apr-05 19:32N 34°37' E 135°22'0 0.0
2015-Apr-05 18:32N 34°37' E 135°22'0 0.0
2015-Apr-05 17:32N 34°37' E 135°22'0 0.0
2015-Apr-05 16:32N 34°37' E 135°22'0 0.0
2015-Apr-05 15:32N 34°37' E 135°22'6 6.2
2015-Apr-05 14:33N 34°36' E 135°14'9 9.0
2015-Apr-05 13:33N 34°36' E 135°03'7 7.4
2015-Apr-05 12:33N 34°35' E 134°54'  
2015-Mar-30 15:07N 35°07' E 129°15'810.9
2015-Mar-30 14:21N 35°01' E 129°09'  

Dump ship's entire track history